Time;durP1;ratioP1;P1;durP2;ratioP2;P2;SDS_P1;SDS_P2;PMS_P1;PMS_P2;Temp;Humidity;BMP_temperature;BMP_pressure;BME280_temperature;BME280_humidity;BME280_pressure;Samples;Min_cycle;Max_cycle;Signal;HPM_P1;HPM_P2
2022/06/28 00:01:07;;;;;;;8.95;7.40;;;;;;;16.48;100.00;96586.97;4904460;29;20040;-79
2022/06/28 00:03:34;;;;;;;20.05;9.50;;;;;;;16.43;100.00;96588.00;5193915;23;20065;-86
2022/06/28 00:06:06;;;;;;;10.60;8.00;;;;;;;16.50;100.00;96584.69;4883169;29;20051;-84
2022/06/28 00:11:14;;;;;;;10.13;7.93;;;;;;;16.56;100.00;96616.25;4879805;29;20088;-86
2022/06/28 00:13:43;;;;;;;11.32;8.13;;;;;;;16.31;100.00;96632.03;4864483;29;20137;-85
2022/06/28 00:16:14;;;;;;;13.13;8.48;;;;;;;16.30;100.00;96627.69;4881303;29;20050;-86
2022/06/28 00:18:56;;;;;;;10.18;7.40;;;;;;;16.42;100.00;96622.16;4944781;23;20081;-85
2022/06/28 00:21:24;;;;;;;10.60;7.22;;;;;;;16.56;100.00;96631.97;4894962;29;20050;-87
2022/06/28 00:24:03;;;;;;;10.88;7.38;;;;;;;16.65;100.00;96633.41;4919299;29;20043;-86
2022/06/28 00:26:51;;;;;;;11.85;7.40;;;;;;;16.78;100.00;96628.66;4903268;29;20076;-86
2022/06/28 00:29:19;;;;;;;11.70;8.05;;;;;;;16.82;100.00;96624.06;4911280;29;20071;-84
2022/06/28 00:31:46;;;;;;;9.32;7.60;;;;;;;16.90;100.00;96625.84;4901871;29;20064;-83
2022/06/28 00:34:13;;;;;;;7.93;7.00;;;;;;;16.97;100.00;96627.22;4883300;23;20054;-83
2022/06/28 00:36:40;;;;;;;8.10;6.80;;;;;;;17.06;100.00;96625.06;4864265;29;20038;-84
2022/06/28 00:39:09;;;;;;;10.07;7.13;;;;;;;17.05;100.00;96634.50;4847550;29;20046;-84
2022/06/28 00:41:37;;;;;;;9.85;7.75;;;;;;;17.13;100.00;96644.53;4865151;29;20125;-84
2022/06/28 00:44:06;;;;;;;11.45;6.97;;;;;;;17.14;100.00;96643.38;4848691;29;20057;-83
2022/06/28 00:46:35;;;;;;;10.02;7.40;;;;;;;17.14;100.00;96657.13;4848020;29;20069;-85
2022/06/28 00:49:03;;;;;;;9.38;7.22;;;;;;;17.16;100.00;96658.38;4832679;29;20050;-78
2022/06/28 00:51:30;;;;;;;10.25;7.72;;;;;;;17.10;100.00;96662.53;5148521;23;20045;-84
2022/06/28 00:53:58;;;;;;;9.35;7.05;;;;;;;17.06;100.00;96669.09;4862684;29;20109;-84
2022/06/28 00:56:39;;;;;;;8.73;7.45;;;;;;;17.14;100.00;96681.91;4869292;29;20053;-86
2022/06/28 00:59:06;;;;;;;8.32;7.07;;;;;;;17.12;100.00;96697.94;4870345;29;20352;-84
2022/06/28 01:01:34;;;;;;;9.85;7.05;;;;;;;17.17;100.00;96694.94;4895341;29;20069;-87
2022/06/28 01:14:44;;;;;;;11.88;8.30;;;;;;;17.34;100.00;96708.41;5619535;23;20245;-89
2022/06/28 01:19:48;;;;;;;9.77;7.70;;;;;;;17.42;100.00;96706.63;5900900;23;20023;-87
2022/06/28 01:24:51;;;;;;;9.27;7.45;;;;;;;17.53;100.00;96715.16;4900249;29;20045;-87
2022/06/28 01:27:19;;;;;;;10.25;8.10;;;;;;;17.55;100.00;96710.09;4901961;29;20033;-88
2022/06/28 01:30:33;;;;;;;14.80;9.02;;;;;;;17.50;100.00;96713.13;4900622;29;20081;-87
2022/06/28 01:33:00;;;;;;;13.43;8.65;;;;;;;17.49;100.00;96720.59;5127901;23;20035;-88
2022/06/28 02:10:26;;;;;;;9.23;7.45;;;;;;;17.47;100.00;96789.75;5067483;23;20048;-88
2022/06/28 02:12:53;;;;;;;10.32;7.78;;;;;;;17.49;100.00;96781.16;4901743;29;20033;-85
2022/06/28 02:45:37;;;;;;;12.85;8.52;;;;;;;17.38;100.00;96747.84;5920000;23;20024;-86
2022/06/28 02:48:05;;;;;;;13.23;8.63;;;;;;;17.39;100.00;96752.19;4899785;29;20096;-79
2022/06/28 02:50:32;;;;;;;11.10;8.30;;;;;;;17.44;100.00;96749.19;4901636;29;20101;-88
2022/06/28 04:24:02;;;;;;;16.98;11.05;;;;;;;16.71;100.00;96743.97;5587884;23;20108;-86
2022/06/28 04:29:04;;;;;;;16.33;10.27;;;;;;;16.90;100.00;96746.88;5590635;23;20047;-77
2022/06/28 04:42:09;;;;;;;14.57;10.70;;;;;;;16.99;100.00;96759.69;5731916;23;20065;-85
2022/06/28 04:44:38;;;;;;;14.75;10.93;;;;;;;16.94;100.00;96756.03;4903731;29;20041;-87
2022/06/28 04:47:05;;;;;;;11.60;9.10;;;;;;;17.06;100.00;96757.94;4902040;29;20053;-82
2022/06/28 04:52:08;;;;;;;15.45;9.95;;;;;;;17.14;99.59;96772.72;5439417;23;20037;-83
2022/06/28 04:54:35;;;;;;;15.32;10.00;;;;;;;17.12;99.92;96766.75;5297402;23;20048;-87
2022/06/28 04:57:02;;;;;;;11.85;9.23;;;;;;;17.16;99.61;96775.91;4882643;29;20073;-76
2022/06/28 04:59:30;;;;;;;12.10;9.00;;;;;;;17.22;99.70;96769.00;4881859;29;20076;-87
2022/06/28 05:01:57;;;;;;;10.77;8.60;;;;;;;17.29;99.78;96771.16;4884169;29;20089;-88
2022/06/28 05:09:33;;;;;;;13.70;9.18;;;;;;;17.37;97.56;96771.00;5461217;23;20051;-78
2022/06/28 05:12:00;;;;;;;12.60;8.30;;;;;;;17.41;97.21;96777.41;4902295;29;20067;-78
2022/06/28 05:14:27;;;;;;;11.65;9.52;;;;;;;17.41;97.64;96777.41;4905646;29;20101;-78
2022/06/28 05:16:55;;;;;;;12.00;9.90;;;;;;;17.27;98.46;96768.75;4900800;29;20128;-78
2022/06/28 05:19:21;;;;;;;15.07;9.35;;;;;;;17.39;98.07;96767.91;4903910;29;20060;-78
2022/06/28 05:21:48;;;;;;;16.13;10.45;;;;;;;17.36;97.54;96771.34;4902556;29;20049;-78
2022/06/28 05:24:14;;;;;;;15.18;9.35;;;;;;;17.20;97.99;96768.56;4897020;29;20056;-78
2022/06/28 05:26:42;;;;;;;14.43;10.35;;;;;;;17.13;97.66;96766.41;4897014;29;20048;-78
2022/06/28 05:29:09;;;;;;;15.60;9.57;;;;;;;17.21;97.83;96768.19;4896317;29;20475;-79
2022/06/28 05:31:36;;;;;;;12.90;9.45;;;;;;;17.24;97.13;96765.91;4896639;29;20048;-79
2022/06/28 05:34:04;;;;;;;14.88;9.40;;;;;;;17.26;97.34;96758.88;4893245;29;20060;-78
2022/06/28 05:36:31;;;;;;;12.75;9.18;;;;;;;17.23;96.98;96756.84;4891876;29;20059;-79
2022/06/28 05:38:57;;;;;;;13.25;9.35;;;;;;;17.25;96.75;96756.50;4891894;29;20143;-78
2022/06/28 05:41:24;;;;;;;14.18;9.10;;;;;;;17.29;97.26;96747.19;4891395;29;20051;-78
2022/06/28 05:43:51;;;;;;;11.13;8.85;;;;;;;17.45;97.91;96739.75;4891783;29;20049;-78
2022/06/28 05:46:17;;;;;;;10.73;7.65;;;;;;;17.58;97.49;96742.44;4891244;29;20060;-78
2022/06/28 05:48:43;;;;;;;12.52;7.72;;;;;;;17.58;96.46;96737.72;4891824;29;20072;-78
2022/06/28 05:51:11;;;;;;;10.02;8.50;;;;;;;17.57;94.16;96747.13;4891379;29;20058;-78
2022/06/28 05:53:38;;;;;;;10.65;6.78;;;;;;;17.68;93.32;96752.91;4891206;29;20049;-78
2022/06/28 05:56:04;;;;;;;10.95;7.70;;;;;;;17.68;94.53;96753.72;4891754;29;20067;-78
2022/06/28 05:58:31;;;;;;;11.95;8.00;;;;;;;17.72;94.60;96762.09;4910663;23;20044;-80
2022/06/28 06:00:57;;;;;;;8.60;6.93;;;;;;;17.90;94.70;96759.78;4895350;29;20056;-79
2022/06/28 06:03:24;;;;;;;10.13;6.72;;;;;;;18.07;95.18;96764.16;4895264;29;20048;-79
2022/06/28 06:05:51;;;;;;;10.18;5.88;;;;;;;18.09;92.86;96767.34;4896290;29;20051;-78
2022/06/28 06:08:19;;;;;;;9.90;7.15;;;;;;;18.00;91.38;96759.25;4895840;29;20147;-77
2022/06/28 06:10:45;;;;;;;6.90;5.70;;;;;;;18.10;92.33;96741.41;4896096;29;20045;-77
2022/06/28 06:13:12;;;;;;;9.63;6.10;;;;;;;18.19;92.76;96736.50;4895182;29;20055;-78
2022/06/28 06:15:38;;;;;;;7.25;6.28;;;;;;;18.24;93.53;96730.72;4895683;29;20049;-80
2022/06/28 06:18:05;;;;;;;8.93;6.00;;;;;;;18.31;93.51;96719.84;4895282;29;20048;-80
2022/06/28 06:20:31;;;;;;;8.65;6.13;;;;;;;18.37;92.74;96714.84;4896072;29;20049;-80
2022/06/28 06:22:58;;;;;;;9.60;6.55;;;;;;;18.43;91.43;96721.69;4895407;29;20516;-80
2022/06/28 06:25:26;;;;;;;8.15;6.00;;;;;;;18.50;90.96;96730.91;4895377;29;20044;-78
2022/06/28 06:27:52;;;;;;;10.52;6.80;;;;;;;18.59;91.39;96729.94;4895908;29;20056;-80
2022/06/28 06:30:19;;;;;;;7.70;6.00;;;;;;;18.62;89.55;96729.19;4894906;29;20052;-80
2022/06/28 06:32:45;;;;;;;6.88;5.57;;;;;;;18.74;89.37;96726.31;4895458;29;20570;-80
2022/06/28 06:35:11;;;;;;;9.27;5.63;;;;;;;18.82;89.78;96721.75;4895194;29;20297;-82
2022/06/28 06:37:38;;;;;;;7.65;5.15;;;;;;;18.54;80.67;96727.44;4895601;29;20527;-79
2022/06/28 06:40:06;;;;;;;5.93;4.45;;;;;;;18.74;82.99;96726.31;4895000;29;20052;-80
2022/06/28 06:42:35;;;;;;;6.47;4.72;;;;;;;18.62;83.58;96731.94;4895710;29;20052;-80
2022/06/28 06:45:01;;;;;;;8.65;5.78;;;;;;;18.59;82.38;96741.75;4895194;29;20052;-78
2022/06/28 06:47:28;;;;;;;7.63;5.22;;;;;;;18.65;81.74;96747.78;4895594;29;20060;-80
2022/06/28 06:49:54;;;;;;;6.88;4.82;;;;;;;18.72;82.09;96751.50;4895660;29;20048;-78
2022/06/28 06:52:21;;;;;;;4.55;3.95;;;;;;;18.66;79.73;96741.09;4894491;29;20055;-80
2022/06/28 06:54:47;;;;;;;6.90;4.32;;;;;;;18.82;83.59;96730.84;4895486;29;20041;-80
2022/06/28 06:57:15;;;;;;;4.95;4.00;;;;;;;18.85;85.29;96724.59;4894931;29;20492;-80
2022/06/28 06:59:43;;;;;;;6.78;4.47;;;;;;;18.67;82.16;96726.16;4895403;29;20112;-80
2022/06/28 07:02:09;;;;;;;5.55;3.55;;;;;;;18.82;83.03;96733.59;4895030;29;20053;-78
2022/06/28 07:04:35;;;;;;;5.55;3.97;;;;;;;18.91;82.68;96739.72;4895422;29;20136;-78
2022/06/28 07:07:02;;;;;;;7.57;3.92;;;;;;;18.90;82.36;96723.53;4895032;29;20055;-79
2022/06/28 07:09:29;;;;;;;5.20;4.25;;;;;;;18.93;83.19;96723.56;4895437;29;20055;-79
2022/06/28 07:11:55;;;;;;;5.88;4.10;;;;;;;18.99;84.22;96711.06;4895115;29;20083;-79
2022/06/28 07:14:22;;;;;;;7.00;5.30;;;;;;;18.82;84.31;96707.97;4895044;29;20049;-79
2022/06/28 07:16:50;;;;;;;7.68;5.47;;;;;;;18.84;83.94;96695.41;4895418;29;20063;-78
2022/06/28 07:19:16;;;;;;;6.60;5.05;;;;;;;18.95;84.93;96695.59;4894759;29;20056;-80
2022/06/28 07:21:44;;;;;;;6.13;4.82;;;;;;;19.08;85.93;96696.28;4894796;29;20049;-79
2022/06/28 07:24:11;;;;;;;8.75;5.10;;;;;;;19.18;87.31;96696.47;4895020;29;20136;-79
2022/06/28 07:26:38;;;;;;;6.60;4.85;;;;;;;19.22;84.63;96697.34;4895081;29;20049;-78
2022/06/28 07:29:05;;;;;;;7.82;4.68;;;;;;;19.34;84.35;96696.38;4894540;29;20104;-78
2022/06/28 07:31:31;;;;;;;6.05;4.32;;;;;;;19.54;84.67;96697.91;4895074;29;20067;-79
2022/06/28 07:33:59;;;;;;;5.18;4.10;;;;;;;19.74;85.36;96689.59;4894958;29;20055;-78
2022/06/28 07:36:26;;;;;;;6.65;4.13;;;;;;;19.80;79.87;96704.72;4894460;29;20136;-80
2022/06/28 07:38:54;;;;;;;5.38;4.05;;;;;;;19.90;80.31;96714.34;4895084;29;20067;-79
2022/06/28 07:41:20;;;;;;;7.60;4.20;;;;;;;19.78;79.96;96718.91;4894372;29;20052;-78
2022/06/28 07:43:50;;;;;;;5.53;4.03;;;;;;;19.86;80.97;96714.28;4898112;29;20504;-79
2022/06/28 07:46:17;;;;;;;5.03;3.80;;;;;;;19.77;79.25;96728.34;4898243;29;20056;-79
2022/06/28 07:48:44;;;;;;;4.22;3.72;;;;;;;19.83;80.17;96734.34;4898429;29;20092;-79
2022/06/28 07:53:56;;;;;;;4.80;3.80;;;;;;;19.88;77.50;96767.19;4880087;29;20132;-79
2022/06/28 07:56:22;;;;;;;5.07;3.80;;;;;;;19.93;77.24;96769.66;4879335;29;20052;-78
2022/06/28 07:58:49;;;;;;;7.28;4.40;;;;;;;19.85;78.82;96769.94;4879673;29;20045;-79
2022/06/28 08:01:16;;;;;;;6.05;3.83;;;;;;;19.86;78.73;96779.81;4879185;29;20053;-79
2022/06/28 08:03:42;;;;;;;5.72;3.88;;;;;;;19.86;76.80;96777.03;4879644;29;20056;-79
2022/06/28 08:06:09;;;;;;;4.15;3.45;;;;;;;19.65;77.71;96769.16;4879228;29;20386;-79
2022/06/28 08:08:37;;;;;;;3.67;3.15;;;;;;;19.74;79.89;96778.03;4879792;29;20049;-79
2022/06/28 08:11:04;;;;;;;4.88;4.07;;;;;;;19.72;81.01;96781.13;4879302;29;20049;-79
2022/06/28 08:13:30;;;;;;;4.22;3.65;;;;;;;19.75;80.74;96779.63;4879506;29;20052;-79
2022/06/28 08:15:58;;;;;;;6.35;3.50;;;;;;;19.67;79.09;96777.88;4879406;29;20052;-78
2022/06/28 08:18:24;;;;;;;6.85;4.03;;;;;;;20.04;75.72;96781.69;4878787;29;20057;-80
2022/06/28 08:20:51;;;;;;;4.50;3.42;;;;;;;20.59;75.74;96775.88;4881582;29;20096;-79
2022/06/28 08:23:17;;;;;;;4.53;3.67;;;;;;;21.17;76.21;96760.84;4878846;29;20417;-79
2022/06/28 08:25:46;;;;;;;6.70;3.50;;;;;;;21.34;77.94;96768.59;4879394;29;20052;-78
2022/06/28 08:28:13;;;;;;;3.97;3.10;;;;;;;21.71;76.03;96765.03;4878989;29;20069;-81
2022/06/28 08:30:42;;;;;;;4.95;3.22;;;;;;;21.86;69.09;96753.69;4879145;29;20049;-78
2022/06/28 08:33:09;;;;;;;6.50;3.30;;;;;;;22.06;72.31;96747.94;4878683;29;20053;-78
2022/06/28 08:35:36;;;;;;;4.70;2.85;;;;;;;22.21;70.54;96748.88;4879357;29;20048;-78
2022/06/28 08:38:04;;;;;;;6.82;3.63;;;;;;;22.33;68.55;96740.25;4879052;29;20056;-79
2022/06/28 08:40:32;;;;;;;4.20;2.63;;;;;;;22.29;67.03;96739.41;4879360;29;20053;-78
2022/06/28 08:43:02;;;;;;;3.10;2.55;;;;;;;22.35;66.75;96737.91;4879212;29;20053;-77
2022/06/28 08:45:30;;;;;;;6.25;3.45;;;;;;;22.35;68.61;96732.34;4879131;29;20044;-78
2022/06/28 08:47:57;;;;;;;3.92;2.80;;;;;;;22.47;69.54;96729.25;4878739;29;20052;-79
2022/06/28 08:50:32;;;;;;;9.75;3.65;;;;;;;22.69;72.90;96724.63;4879576;29;20053;-78
2022/06/28 08:53:02;;;;;;;3.25;2.78;;;;;;;22.49;63.33;96724.09;4897181;29;20088;-78
2022/06/28 08:55:30;;;;;;;5.07;2.80;;;;;;;22.33;62.16;96724.38;4897112;29;20104;-78
2022/06/28 08:57:58;;;;;;;3.75;2.80;;;;;;;22.59;64.09;96715.03;4897443;29;20193;-78
2022/06/28 09:00:25;;;;;;;4.15;2.47;;;;;;;22.76;61.88;96698.88;4897129;29;20519;-79
2022/06/28 09:02:53;;;;;;;3.75;2.70;;;;;;;22.90;62.97;96691.44;4897485;29;20056;-78
2022/06/28 09:05:21;;;;;;;3.30;2.35;;;;;;;22.84;60.72;96686.63;4896945;29;20056;-77
2022/06/28 09:07:49;;;;;;;4.65;2.50;;;;;;;23.03;63.51;96685.56;4897603;29;20052;-78
2022/06/28 09:10:15;;;;;;;3.60;2.55;;;;;;;23.13;62.61;96693.91;4897036;29;20040;-79
2022/06/28 09:12:42;;;;;;;3.30;2.70;;;;;;;22.91;62.92;96695.78;4897012;29;20532;-80
2022/06/28 09:15:09;;;;;;;5.82;2.78;;;;;;;23.01;65.69;96691.47;4896778;29;20049;-80
2022/06/28 09:17:37;;;;;;;5.53;2.65;;;;;;;23.05;61.72;96691.50;4897258;29;20068;-79
2022/06/28 09:20:07;;;;;;;3.80;2.33;;;;;;;23.03;62.33;96688.31;4896720;29;20048;-78
2022/06/28 09:22:36;;;;;;;3.85;2.38;;;;;;;23.04;63.55;96696.25;4894997;29;20053;-79
2022/06/28 09:25:04;;;;;;;3.63;2.40;;;;;;;22.90;61.11;96694.22;4896594;29;20048;-79
2022/06/28 09:27:34;;;;;;;2.90;2.15;;;;;;;22.82;60.51;96695.34;4897119;29;20045;-79
2022/06/28 09:30:02;;;;;;;3.95;2.88;;;;;;;22.67;64.62;96694.47;4897065;29;20136;-81
2022/06/28 09:32:30;;;;;;;3.72;2.58;;;;;;;22.80;64.77;96686.59;4896844;29;20416;-79
2022/06/28 09:35:00;;;;;;;6.45;2.70;;;;;;;22.95;65.28;96695.81;4896710;29;20108;-80
2022/06/28 09:37:39;;;;;;;3.08;2.50;;;;;;;23.25;64.60;96700.31;4896374;29;20056;-81
2022/06/28 09:40:17;;;;;;;3.88;2.42;;;;;;;23.50;61.86;96690.03;4896230;29;20060;-80
2022/06/28 09:42:46;;;;;;;2.67;2.35;;;;;;;23.46;58.31;96683.69;4896775;29;20052;-79
2022/06/28 09:45:16;;;;;;;5.30;2.45;;;;;;;23.82;59.09;96683.75;4896489;29;20052;-79
2022/06/28 09:47:45;;;;;;;2.42;1.83;;;;;;;23.64;57.72;96678.94;4896530;29;20040;-79
2022/06/28 09:50:18;;;;;;;4.00;2.53;;;;;;;23.53;61.53;96678.13;4896006;29;20079;-81
2022/06/28 09:52:45;;;;;;;3.63;2.38;;;;;;;23.61;61.79;96674.16;4894720;29;20048;-79
2022/06/28 09:55:14;;;;;;;3.35;2.00;;;;;;;23.63;61.40;96682.94;4896337;29;20049;-79
2022/06/28 09:57:44;;;;;;;2.83;1.90;;;;;;;23.75;62.29;96672.59;4896337;29;20048;-80
2022/06/28 10:00:11;;;;;;;3.20;2.00;;;;;;;23.79;60.19;96667.84;4896028;29;20049;-80
2022/06/28 10:02:38;;;;;;;5.03;2.00;;;;;;;23.91;58.55;96670.25;4896160;29;20052;-80
2022/06/28 10:05:06;;;;;;;4.07;1.95;;;;;;;24.05;58.42;96670.22;4895460;29;20053;-80
2022/06/28 10:07:34;;;;;;;5.72;1.92;;;;;;;24.12;59.87;96656.31;4896244;29;20048;-80
2022/06/28 10:10:02;;;;;;;3.95;1.90;;;;;;;23.99;54.99;96649.56;4896502;29;20053;-79
2022/06/28 10:15:18;;;;;;;3.85;2.30;;;;;;;23.97;59.47;96640.84;4895834;29;20055;-81
2022/06/28 10:17:50;;;;;;;3.28;1.73;;;;;;;24.01;58.35;96638.81;4896118;29;20413;-79
2022/06/28 10:20:20;;;;;;;2.03;1.75;;;;;;;24.05;56.83;96630.50;4895770;29;20051;-78
2022/06/28 10:22:48;;;;;;;3.85;2.10;;;;;;;23.87;55.52;96630.53;4894447;29;20052;-78
2022/06/28 10:25:17;;;;;;;3.50;2.10;;;;;;;23.59;54.96;96626.50;4895793;29;20048;-84
2022/06/28 10:27:48;;;;;;;4.05;2.60;;;;;;;23.25;57.27;96639.19;4896113;29;20049;-81
2022/06/28 10:30:27;;;;;;;4.88;2.67;;;;;;;22.94;58.12;96635.91;4885802;29;20068;-79
2022/06/28 10:32:56;;;;;;;3.78;2.28;;;;;;;23.03;60.22;96630.00;4895614;29;20049;-78
2022/06/28 10:36:05;;;;;;;3.35;2.30;;;;;;;22.95;62.39;96640.28;4895480;29;20048;-78
2022/06/28 10:38:33;;;;;;;4.07;2.42;;;;;;;22.90;61.85;96624.78;4896173;29;20048;-78
2022/06/28 10:41:14;;;;;;;3.10;2.17;;;;;;;22.75;60.32;96625.91;4895786;29;20514;-78
2022/06/28 10:43:49;;;;;;;4.07;2.55;;;;;;;22.79;61.56;96614.81;4895842;29;20045;-79
2022/06/28 10:46:16;;;;;;;4.32;2.70;;;;;;;22.71;60.76;96610.41;4895404;29;20049;-78
2022/06/28 10:49:04;;;;;;;5.97;2.72;;;;;;;22.69;61.54;96604.47;4895721;29;20051;-79
2022/06/28 10:51:31;;;;;;;4.78;3.38;;;;;;;22.58;58.71;96602.44;4893430;29;20576;-79
2022/06/28 10:54:06;;;;;;;3.92;2.58;;;;;;;22.55;59.97;96602.41;4895196;29;20064;-78
2022/06/28 10:56:37;;;;;;;3.85;2.53;;;;;;;22.54;58.61;96598.06;4895399;29;20045;-79
2022/06/28 10:59:06;;;;;;;3.35;2.50;;;;;;;22.47;58.87;96595.25;4894944;29;20060;-79
2022/06/28 11:01:55;;;;;;;4.15;1.88;;;;;;;22.31;58.87;96596.38;4895508;29;20048;-79
2022/06/28 11:04:27;;;;;;;2.75;2.13;;;;;;;22.49;61.96;96601.22;4895080;29;20453;-79
2022/06/28 11:06:56;;;;;;;4.63;2.53;;;;;;;22.27;61.04;96590.00;4895346;29;20049;-78
2022/06/28 11:09:35;;;;;;;4.43;2.55;;;;;;;22.27;60.40;96598.34;4894942;29;20049;-79
2022/06/28 11:12:06;;;;;;;2.80;2.13;;;;;;;22.05;58.73;96575.22;4895004;29;20057;-77
2022/06/28 11:14:35;;;;;;;5.47;2.50;;;;;;;22.14;62.24;96581.25;4895218;29;20056;-77
2022/06/28 11:17:13;;;;;;;2.47;2.08;;;;;;;22.08;60.98;96574.44;4894774;29;20083;-78
2022/06/28 11:19:50;;;;;;;3.10;2.05;;;;;;;22.14;61.11;96567.38;4895308;29;20059;-78
2022/06/28 11:22:18;;;;;;;3.47;2.40;;;;;;;22.25;63.75;96567.41;4892623;29;20183;-78
2022/06/28 11:24:46;;;;;;;2.50;1.98;;;;;;;22.17;62.47;96576.09;4894931;29;20668;-78
2022/06/28 11:27:21;;;;;;;4.95;2.38;;;;;;;22.08;61.69;96568.91;4894772;29;20055;-79
2022/06/28 11:29:56;;;;;;;2.60;2.40;;;;;;;22.06;62.99;96554.59;4895184;29;20048;-80
2022/06/28 11:32:24;;;;;;;3.80;2.40;;;;;;;21.93;61.76;96556.13;4894790;29;20045;-78
2022/06/28 11:34:56;;;;;;;2.83;2.20;;;;;;;22.00;63.29;96556.16;4895464;29;20048;-78
2022/06/28 11:37:23;;;;;;;4.80;2.95;;;;;;;22.01;63.55;96552.19;4895598;29;20413;-78
2022/06/28 11:39:54;;;;;;;4.50;2.30;;;;;;;22.02;64.18;96553.00;4896000;29;20576;-78
2022/06/28 11:42:21;;;;;;;3.45;2.58;;;;;;;21.81;62.51;96548.13;4895522;29;20053;-78
2022/06/28 11:44:49;;;;;;;6.97;2.65;;;;;;;21.66;62.54;96565.81;4895386;29;20067;-79
2022/06/28 11:47:17;;;;;;;4.00;2.78;;;;;;;21.77;67.49;96559.19;4894900;29;20045;-77
2022/06/28 11:49:44;;;;;;;3.17;2.40;;;;;;;21.77;62.95;96566.69;4895151;29;20080;-78
2022/06/28 11:52:14;;;;;;;2.65;2.10;;;;;;;21.78;63.51;96563.56;4892745;29;20053;-79
2022/06/28 11:54:43;;;;;;;3.80;2.55;;;;;;;21.81;63.09;96567.53;4895085;29;20195;-78
2022/06/28 11:57:17;;;;;;;6.25;2.30;;;;;;;21.87;63.03;96563.19;4894924;29;20413;-78
2022/06/28 11:59:53;;;;;;;4.68;2.63;;;;;;;21.81;64.92;96559.19;4897269;29;20041;-79
2022/06/28 12:02:37;;;;;;;3.40;2.25;;;;;;;21.86;65.71;96553.28;4895815;29;20053;-78
2022/06/28 12:05:05;;;;;;;5.93;2.40;;;;;;;21.82;67.07;96549.69;4894851;29;20052;-77
2022/06/28 12:07:35;;;;;;;3.95;2.50;;;;;;;21.82;65.55;96556.06;4895353;29;20063;-78
2022/06/28 12:10:02;;;;;;;5.80;2.70;;;;;;;21.77;65.72;96556.44;4894683;29;20052;-78
2022/06/28 12:12:30;;;;;;;2.80;2.25;;;;;;;21.66;61.95;96563.06;4895214;29;20052;-78
2022/06/28 12:14:57;;;;;;;4.45;2.45;;;;;;;21.67;63.17;96565.47;4895445;29;20040;-78
2022/06/28 12:17:23;;;;;;;2.80;2.40;;;;;;;21.57;61.42;96555.88;4895411;29;20492;-78
2022/06/28 12:19:50;;;;;;;2.53;2.00;;;;;;;21.69;63.67;96551.22;4896590;29;20052;-79
2022/06/28 12:22:19;;;;;;;4.50;2.22;;;;;;;21.71;64.08;96537.75;4894918;29;20055;-77
2022/06/28 12:24:47;;;;;;;2.92;2.50;;;;;;;21.70;65.70;96538.94;4895461;29;20496;-77
2022/06/28 12:27:15;;;;;;;3.13;2.33;;;;;;;21.74;66.87;96531.44;4894612;29;20049;-80
2022/06/28 12:29:44;;;;;;;3.20;2.17;;;;;;;21.75;67.06;96527.50;4897933;29;20060;-78
2022/06/28 12:32:12;;;;;;;6.88;2.70;;;;;;;21.72;66.62;96522.75;4898077;29;20048;-78
2022/06/28 12:34:40;;;;;;;2.83;2.40;;;;;;;21.62;65.51;96530.59;4898303;29;20055;-78
2022/06/28 12:37:06;;;;;;;3.15;2.50;;;;;;;21.71;66.68;96537.75;4897987;29;20057;-77
2022/06/28 12:39:33;;;;;;;4.13;2.45;;;;;;;21.75;67.06;96538.56;4898197;29;20052;-78
2022/06/28 12:41:59;;;;;;;3.38;2.63;;;;;;;21.69;65.98;96540.13;4898054;29;20056;-79
2022/06/28 12:44:26;;;;;;;3.10;2.45;;;;;;;21.78;67.36;96543.38;4897430;29;20049;-78
2022/06/28 12:46:54;;;;;;;4.47;2.65;;;;;;;21.77;67.59;96550.06;4897922;29;20052;-77
2022/06/28 12:49:20;;;;;;;4.88;2.45;;;;;;;21.79;67.07;96561.56;4897499;29;20424;-80
2022/06/28 12:51:47;;;;;;;4.72;2.50;;;;;;;21.72;63.29;96562.34;4897941;29;20051;-79
2022/06/28 12:54:14;;;;;;;3.22;2.30;;;;;;;21.76;64.27;96563.13;4897305;29;20056;-78
2022/06/28 12:56:41;;;;;;;4.07;2.13;;;;;;;21.78;64.17;96569.09;4897823;29;20048;-78
2022/06/28 12:59:08;;;;;;;3.25;2.60;;;;;;;21.79;66.46;96572.66;4897523;29;20052;-81
2022/06/28 13:01:34;;;;;;;4.85;2.55;;;;;;;21.73;66.35;96563.13;4897714;29;20053;-80
2022/06/28 13:04:03;;;;;;;4.22;2.33;;;;;;;21.74;64.28;96576.59;4897462;29;20052;-78
2022/06/28 13:06:30;;;;;;;3.63;2.47;;;;;;;21.72;64.63;96575.41;4897354;29;20045;-78
2022/06/28 13:08:56;;;;;;;3.17;2.53;;;;;;;21.68;66.08;96567.06;4897644;29;20052;-78
2022/06/28 13:11:23;;;;;;;2.78;2.55;;;;;;;21.69;67.16;96568.63;4897345;29;20614;-80
2022/06/28 13:13:50;;;;;;;4.53;2.70;;;;;;;21.68;67.41;96557.94;4897462;29;20104;-79
2022/06/28 13:16:16;;;;;;;4.68;2.35;;;;;;;21.66;67.41;96563.06;4897257;29;20044;-79
2022/06/28 13:18:44;;;;;;;2.97;2.33;;;;;;;21.63;68.17;96554.34;4897291;29;20055;-78
2022/06/28 13:21:12;;;;;;;3.70;2.40;;;;;;;21.63;68.75;96545.25;4894986;29;20539;-78
2022/06/28 13:23:38;;;;;;;3.45;2.72;;;;;;;21.62;68.99;96546.44;4897543;29;20509;-78
2022/06/28 13:26:06;;;;;;;3.20;2.75;;;;;;;21.55;67.76;96555.47;4886483;29;20521;-78
2022/06/28 13:28:32;;;;;;;3.63;2.70;;;;;;;21.50;64.72;96544.72;4896992;29;20044;-78
2022/06/28 13:30:59;;;;;;;4.78;2.42;;;;;;;21.46;62.43;96518.22;4897129;29;20075;-79
2022/06/28 13:33:25;;;;;;;3.42;2.40;;;;;;;21.55;64.32;96508.34;4896651;29;20052;-78
2022/06/28 13:35:52;;;;;;;3.47;2.25;;;;;;;21.60;65.73;96494.13;4897326;29;20045;-78
2022/06/28 13:38:21;;;;;;;4.38;2.60;;;;;;;21.62;67.34;96480.72;4896536;29;20402;-78
2022/06/28 13:40:47;;;;;;;3.95;2.40;;;;;;;21.65;67.74;96483.88;4896034;29;20049;-78
2022/06/28 13:45:58;;;;;;;4.95;2.85;;;;;;;21.57;64.86;96483.84;4897476;29;20064;-78
2022/06/28 13:48:25;;;;;;;2.80;2.50;;;;;;;21.66;65.62;96502.09;4896263;29;20385;-78
2022/06/28 13:50:51;;;;;;;2.95;2.50;;;;;;;21.54;62.97;96506.78;4894986;29;20048;-79
2022/06/28 13:53:18;;;;;;;3.85;2.42;;;;;;;21.55;62.45;96502.81;4896437;29;20187;-80
2022/06/28 13:55:47;;;;;;;3.70;2.63;;;;;;;21.63;62.89;96493.38;4897040;29;20131;-79
2022/06/28 13:58:14;;;;;;;3.40;2.38;;;;;;;21.62;62.50;96497.34;4896140;29;20056;-80
2022/06/28 14:00:41;;;;;;;3.90;2.47;;;;;;;21.55;62.11;96502.03;4897260;29;20494;-80
2022/06/28 14:03:07;;;;;;;3.30;2.53;;;;;;;21.61;63.64;96495.75;4895990;29;20057;-79
2022/06/28 14:05:34;;;;;;;3.10;2.47;;;;;;;21.63;64.48;96487.84;4896883;29;20037;-80
2022/06/28 14:08:00;;;;;;;4.70;2.70;;;;;;;21.59;65.97;96487.00;4896985;29;20052;-79
2022/06/28 14:10:27;;;;;;;4.05;2.70;;;;;;;21.39;62.28;96482.13;4896086;29;20512;-79
2022/06/28 14:12:56;;;;;;;7.07;2.53;;;;;;;21.37;62.02;96476.97;4896711;29;20051;-79
2022/06/28 14:15:23;;;;;;;2.95;2.17;;;;;;;21.42;62.81;96460.00;4895883;29;20049;-79
2022/06/28 14:17:49;;;;;;;3.05;2.75;;;;;;;21.52;64.92;96450.97;4896605;29;20047;-81
2022/06/28 14:20:16;;;;;;;6.55;2.80;;;;;;;21.46;63.99;96435.88;4896300;29;20048;-80
2022/06/28 14:22:43;;;;;;;6.05;2.90;;;;;;;21.44;63.11;96440.22;4894745;29;20079;-80
2022/06/28 14:25:10;;;;;;;4.55;2.65;;;;;;;21.35;64.05;96427.50;4896159;29;20060;-79
2022/06/28 14:27:36;;;;;;;3.53;2.65;;;;;;;21.46;63.92;96422.03;4896454;29;20044;-80
2022/06/28 14:30:06;;;;;;;5.13;3.45;;;;;;;21.46;65.23;96410.16;4896238;29;20053;-78
2022/06/28 14:32:32;;;;;;;4.68;2.85;;;;;;;21.37;65.08;96402.19;4897475;29;20052;-80
2022/06/28 14:34:59;;;;;;;3.65;2.60;;;;;;;21.44;64.83;96407.75;4897315;29;20052;-80
2022/06/28 14:37:25;;;;;;;4.05;2.55;;;;;;;21.45;65.12;96414.88;4896537;29;20052;-82
2022/06/28 14:39:52;;;;;;;4.55;2.92;;;;;;;21.39;63.49;96433.06;4897490;29;20049;-79
2022/06/28 14:42:18;;;;;;;5.43;2.85;;;;;;;21.47;65.37;96476.25;4896691;29;20060;-78
2022/06/28 14:44:45;;;;;;;4.25;3.00;;;;;;;21.43;64.50;96503.13;4897467;29;20044;-79
2022/06/28 14:47:13;;;;;;;4.82;2.90;;;;;;;21.37;63.78;96535.16;4896701;29;20413;-79
2022/06/28 14:49:39;;;;;;;6.13;2.85;;;;;;;21.39;64.18;96532.78;4896993;29;20052;-79
2022/06/28 14:52:06;;;;;;;3.30;2.80;;;;;;;21.27;64.53;96536.63;4894168;29;20048;-80
2022/06/28 14:54:33;;;;;;;3.22;2.75;;;;;;;21.28;64.52;96531.88;4896908;29;20048;-80
2022/06/28 14:57:00;;;;;;;3.08;2.55;;;;;;;21.34;65.68;96524.81;4896815;29;20059;-80
2022/06/28 14:59:27;;;;;;;4.00;2.88;;;;;;;21.33;66.21;96514.94;4895933;29;20052;-79